sensor_id;sensor_type;location;lat;lon;timestamp;temperature;humidity
18260;DHT22;9256;52.236;5.712;2023-05-07T00:00:46;14.60;99.90
18260;DHT22;9256;52.236;5.712;2023-05-07T00:03:13;14.60;99.90
18260;DHT22;9256;52.236;5.712;2023-05-07T00:05:42;14.50;99.90
18260;DHT22;9256;52.236;5.712;2023-05-07T00:08:09;14.50;99.90
18260;DHT22;9256;52.236;5.712;2023-05-07T00:10:36;14.40;99.90
18260;DHT22;9256;52.236;5.712;2023-05-07T00:13:02;14.50;99.90
18260;DHT22;9256;52.236;5.712;2023-05-07T00:15:30;14.40;99.90
18260;DHT22;9256;52.236;5.712;2023-05-07T00:17:57;14.40;99.90
18260;DHT22;9256;52.236;5.712;2023-05-07T00:20:25;14.30;99.90
18260;DHT22;9256;52.236;5.712;2023-05-07T00:22:53;14.30;99.90
18260;DHT22;9256;52.236;5.712;2023-05-07T00:25:20;14.30;99.90
18260;DHT22;9256;52.236;5.712;2023-05-07T00:27:47;14.30;99.90
18260;DHT22;9256;52.236;5.712;2023-05-07T00:30:14;14.30;99.90
18260;DHT22;9256;52.236;5.712;2023-05-07T00:32:41;14.30;99.90
18260;DHT22;9256;52.236;5.712;2023-05-07T00:35:11;14.40;99.90
18260;DHT22;9256;52.236;5.712;2023-05-07T00:37:38;14.40;99.90
18260;DHT22;9256;52.236;5.712;2023-05-07T00:40:07;14.40;99.90
18260;DHT22;9256;52.236;5.712;2023-05-07T00:42:35;14.30;99.90
18260;DHT22;9256;52.236;5.712;2023-05-07T00:45:02;14.30;99.90
18260;DHT22;9256;52.236;5.712;2023-05-07T00:47:29;14.40;99.90
18260;DHT22;9256;52.236;5.712;2023-05-07T00:49:57;14.40;99.90
18260;DHT22;9256;52.236;5.712;2023-05-07T00:52:25;14.30;99.90
18260;DHT22;9256;52.236;5.712;2023-05-07T00:54:53;14.30;99.90
18260;DHT22;9256;52.236;5.712;2023-05-07T00:57:24;14.30;99.90
18260;DHT22;9256;52.236;5.712;2023-05-07T00:59:51;14.30;99.90
18260;DHT22;9256;52.236;5.712;2023-05-07T01:02:18;14.20;99.90
18260;DHT22;9256;52.236;5.712;2023-05-07T01:04:45;14.30;99.90
18260;DHT22;9256;52.236;5.712;2023-05-07T01:07:13;14.20;99.90
18260;DHT22;9256;52.236;5.712;2023-05-07T01:09:40;14.20;99.90
18260;DHT22;9256;52.236;5.712;2023-05-07T01:12:07;14.30;99.90
18260;DHT22;9256;52.236;5.712;2023-05-07T01:14:36;14.20;99.90
18260;DHT22;9256;52.236;5.712;2023-05-07T01:17:03;14.10;99.90
18260;DHT22;9256;52.236;5.712;2023-05-07T01:19:30;14.10;99.90
18260;DHT22;9256;52.236;5.712;2023-05-07T01:22:02;14.20;99.90
18260;DHT22;9256;52.236;5.712;2023-05-07T01:24:31;14.10;99.90
18260;DHT22;9256;52.236;5.712;2023-05-07T01:26:59;14.10;99.90
18260;DHT22;9256;52.236;5.712;2023-05-07T01:29:27;14.10;99.90
18260;DHT22;9256;52.236;5.712;2023-05-07T01:31:55;14.10;99.90
18260;DHT22;9256;52.236;5.712;2023-05-07T01:34:25;14.00;99.90
18260;DHT22;9256;52.236;5.712;2023-05-07T01:36:54;14.00;99.90
18260;DHT22;9256;52.236;5.712;2023-05-07T01:39:25;14.00;99.90
18260;DHT22;9256;52.236;5.712;2023-05-07T01:41:54;13.90;99.90
18260;DHT22;9256;52.236;5.712;2023-05-07T01:44:22;13.90;99.90
18260;DHT22;9256;52.236;5.712;2023-05-07T01:46:49;13.90;99.90
18260;DHT22;9256;52.236;5.712;2023-05-07T01:49:17;13.90;99.90
18260;DHT22;9256;52.236;5.712;2023-05-07T01:51:44;13.80;99.90
18260;DHT22;9256;52.236;5.712;2023-05-07T01:54:11;13.90;99.90
18260;DHT22;9256;52.236;5.712;2023-05-07T01:56:37;13.90;99.90
18260;DHT22;9256;52.236;5.712;2023-05-07T01:59:06;13.90;99.90
18260;DHT22;9256;52.236;5.712;2023-05-07T02:01:33;13.90;99.90
18260;DHT22;9256;52.236;5.712;2023-05-07T02:04:00;13.90;99.90
18260;DHT22;9256;52.236;5.712;2023-05-07T02:06:27;13.90;99.90
18260;DHT22;9256;52.236;5.712;2023-05-07T02:08:54;13.90;99.90
18260;DHT22;9256;52.236;5.712;2023-05-07T02:11:20;13.90;99.90
18260;DHT22;9256;52.236;5.712;2023-05-07T02:13:47;13.80;99.90
18260;DHT22;9256;52.236;5.712;2023-05-07T02:16:16;13.80;99.90
18260;DHT22;9256;52.236;5.712;2023-05-07T02:18:43;13.80;99.90
18260;DHT22;9256;52.236;5.712;2023-05-07T02:21:09;13.80;99.90
18260;DHT22;9256;52.236;5.712;2023-05-07T02:23:36;13.70;99.90
18260;DHT22;9256;52.236;5.712;2023-05-07T02:26:04;13.80;99.90
18260;DHT22;9256;52.236;5.712;2023-05-07T02:28:31;13.70;99.90
18260;DHT22;9256;52.236;5.712;2023-05-07T02:31:02;13.70;99.90
18260;DHT22;9256;52.236;5.712;2023-05-07T02:33:31;13.80;99.90
18260;DHT22;9256;52.236;5.712;2023-05-07T02:36:05;13.80;99.90
18260;DHT22;9256;52.236;5.712;2023-05-07T02:38:32;13.90;99.90
18260;DHT22;9256;52.236;5.712;2023-05-07T02:40:59;13.90;99.90
18260;DHT22;9256;52.236;5.712;2023-05-07T02:43:26;13.90;99.90
18260;DHT22;9256;52.236;5.712;2023-05-07T02:46:00;13.90;99.90
18260;DHT22;9256;52.236;5.712;2023-05-07T02:48:29;13.80;99.90
18260;DHT22;9256;52.236;5.712;2023-05-07T02:50:56;13.90;99.90
18260;DHT22;9256;52.236;5.712;2023-05-07T02:53:23;13.80;99.90
18260;DHT22;9256;52.236;5.712;2023-05-07T02:55:52;13.90;99.90
18260;DHT22;9256;52.236;5.712;2023-05-07T02:58:19;13.90;99.90
18260;DHT22;9256;52.236;5.712;2023-05-07T03:00:46;13.90;99.90
18260;DHT22;9256;52.236;5.712;2023-05-07T03:03:13;13.90;99.90
18260;DHT22;9256;52.236;5.712;2023-05-07T03:05:41;13.90;99.90
18260;DHT22;9256;52.236;5.712;2023-05-07T03:08:09;13.90;99.90
18260;DHT22;9256;52.236;5.712;2023-05-07T03:10:36;13.90;99.90
18260;DHT22;9256;52.236;5.712;2023-05-07T03:13:03;13.90;99.90
18260;DHT22;9256;52.236;5.712;2023-05-07T03:15:30;13.90;99.90
18260;DHT22;9256;52.236;5.712;2023-05-07T03:17:57;13.90;99.90
18260;DHT22;9256;52.236;5.712;2023-05-07T03:20:24;13.90;99.90
18260;DHT22;9256;52.236;5.712;2023-05-07T03:22:52;13.80;99.90
18260;DHT22;9256;52.236;5.712;2023-05-07T03:25:19;13.70;99.90
18260;DHT22;9256;52.236;5.712;2023-05-07T03:27:46;13.60;99.90
18260;DHT22;9256;52.236;5.712;2023-05-07T03:30:13;13.60;99.90
18260;DHT22;9256;52.236;5.712;2023-05-07T03:32:40;13.50;99.90
18260;DHT22;9256;52.236;5.712;2023-05-07T03:35:07;13.50;99.90
18260;DHT22;9256;52.236;5.712;2023-05-07T03:37:34;13.50;99.90
18260;DHT22;9256;52.236;5.712;2023-05-07T03:40:03;13.40;99.90
18260;DHT22;9256;52.236;5.712;2023-05-07T03:42:30;13.40;99.90
18260;DHT22;9256;52.236;5.712;2023-05-07T03:44:57;13.40;99.90
18260;DHT22;9256;52.236;5.712;2023-05-07T03:47:24;13.50;99.90
18260;DHT22;9256;52.236;5.712;2023-05-07T03:49:51;13.40;99.90
18260;DHT22;9256;52.236;5.712;2023-05-07T03:52:19;13.40;99.90
18260;DHT22;9256;52.236;5.712;2023-05-07T03:54:51;13.40;99.90
18260;DHT22;9256;52.236;5.712;2023-05-07T03:57:19;13.40;99.90
18260;DHT22;9256;52.236;5.712;2023-05-07T03:59:46;13.30;99.90
18260;DHT22;9256;52.236;5.712;2023-05-07T04:02:13;13.40;99.90
18260;DHT22;9256;52.236;5.712;2023-05-07T04:04:40;13.50;99.90
18260;DHT22;9256;52.236;5.712;2023-05-07T04:07:07;13.50;99.90
18260;DHT22;9256;52.236;5.712;2023-05-07T04:09:34;13.50;99.90
18260;DHT22;9256;52.236;5.712;2023-05-07T04:12:01;13.60;99.90
18260;DHT22;9256;52.236;5.712;2023-05-07T04:14:29;13.50;99.90
18260;DHT22;9256;52.236;5.712;2023-05-07T04:16:57;13.50;99.90
18260;DHT22;9256;52.236;5.712;2023-05-07T04:19:24;13.50;99.90
18260;DHT22;9256;52.236;5.712;2023-05-07T04:21:51;13.60;99.90
18260;DHT22;9256;52.236;5.712;2023-05-07T04:24:18;13.70;99.90
18260;DHT22;9256;52.236;5.712;2023-05-07T04:26:45;13.70;99.90
18260;DHT22;9256;52.236;5.712;2023-05-07T04:29:12;13.70;99.90
18260;DHT22;9256;52.236;5.712;2023-05-07T04:31:41;13.70;99.90
18260;DHT22;9256;52.236;5.712;2023-05-07T04:34:09;13.80;99.90
18260;DHT22;9256;52.236;5.712;2023-05-07T04:36:37;13.80;99.90
18260;DHT22;9256;52.236;5.712;2023-05-07T04:39:04;13.80;99.90
18260;DHT22;9256;52.236;5.712;2023-05-07T04:41:31;13.90;99.90
18260;DHT22;9256;52.236;5.712;2023-05-07T04:43:58;13.80;99.90
18260;DHT22;9256;52.236;5.712;2023-05-07T04:46:25;13.90;99.90
18260;DHT22;9256;52.236;5.712;2023-05-07T04:48:53;13.90;99.90
18260;DHT22;9256;52.236;5.712;2023-05-07T04:51:20;13.80;99.90
18260;DHT22;9256;52.236;5.712;2023-05-07T04:53:48;13.90;99.90
18260;DHT22;9256;52.236;5.712;2023-05-07T04:56:15;13.90;99.90
18260;DHT22;9256;52.236;5.712;2023-05-07T04:58:42;13.90;99.90
18260;DHT22;9256;52.236;5.712;2023-05-07T05:01:09;14.00;99.90
18260;DHT22;9256;52.236;5.712;2023-05-07T05:03:36;14.10;99.90
18260;DHT22;9256;52.236;5.712;2023-05-07T05:06:05;13.90;99.90
18260;DHT22;9256;52.236;5.712;2023-05-07T05:08:31;13.90;99.90
18260;DHT22;9256;52.236;5.712;2023-05-07T05:11:00;13.90;99.90
18260;DHT22;9256;52.236;5.712;2023-05-07T05:13:27;14.00;99.90
18260;DHT22;9256;52.236;5.712;2023-05-07T05:15:54;14.00;99.90
18260;DHT22;9256;52.236;5.712;2023-05-07T05:18:21;14.00;99.90
18260;DHT22;9256;52.236;5.712;2023-05-07T05:20:48;14.00;99.90
18260;DHT22;9256;52.236;5.712;2023-05-07T05:23:16;14.10;99.90
18260;DHT22;9256;52.236;5.712;2023-05-07T05:25:43;14.20;99.90
18260;DHT22;9256;52.236;5.712;2023-05-07T05:28:10;14.20;99.90
18260;DHT22;9256;52.236;5.712;2023-05-07T05:30:37;14.30;99.90
18260;DHT22;9256;52.236;5.712;2023-05-07T05:33:04;14.30;99.90
18260;DHT22;9256;52.236;5.712;2023-05-07T05:35:31;14.30;99.90
18260;DHT22;9256;52.236;5.712;2023-05-07T05:37:58;14.40;99.90
18260;DHT22;9256;52.236;5.712;2023-05-07T05:40:26;14.30;99.90
18260;DHT22;9256;52.236;5.712;2023-05-07T05:42:53;14.40;99.90
18260;DHT22;9256;52.236;5.712;2023-05-07T05:45:20;14.40;99.90
18260;DHT22;9256;52.236;5.712;2023-05-07T05:47:47;14.40;99.90
18260;DHT22;9256;52.236;5.712;2023-05-07T05:50:14;14.40;99.90
18260;DHT22;9256;52.236;5.712;2023-05-07T05:52:41;14.40;99.90
18260;DHT22;9256;52.236;5.712;2023-05-07T05:55:08;14.40;99.90
18260;DHT22;9256;52.236;5.712;2023-05-07T05:57:37;14.40;99.90
18260;DHT22;9256;52.236;5.712;2023-05-07T06:00:05;14.40;99.90
18260;DHT22;9256;52.236;5.712;2023-05-07T06:02:33;14.40;99.90
18260;DHT22;9256;52.236;5.712;2023-05-07T06:05:00;14.50;99.90
18260;DHT22;9256;52.236;5.712;2023-05-07T06:07:27;14.50;99.90
18260;DHT22;9256;52.236;5.712;2023-05-07T06:09:54;14.60;99.90
18260;DHT22;9256;52.236;5.712;2023-05-07T06:12:21;14.60;99.90
18260;DHT22;9256;52.236;5.712;2023-05-07T06:14:49;14.60;99.90
18260;DHT22;9256;52.236;5.712;2023-05-07T06:17:16;14.70;99.90
18260;DHT22;9256;52.236;5.712;2023-05-07T06:19:43;14.70;99.90
18260;DHT22;9256;52.236;5.712;2023-05-07T06:22:10;14.70;99.90
18260;DHT22;9256;52.236;5.712;2023-05-07T06:24:36;14.70;99.90
18260;DHT22;9256;52.236;5.712;2023-05-07T06:27:03;14.70;99.90
18260;DHT22;9256;52.236;5.712;2023-05-07T06:29:30;14.70;99.90
18260;DHT22;9256;52.236;5.712;2023-05-07T06:32:07;14.70;99.90
18260;DHT22;9256;52.236;5.712;2023-05-07T06:34:34;14.60;99.90
18260;DHT22;9256;52.236;5.712;2023-05-07T06:37:01;14.70;99.90
18260;DHT22;9256;52.236;5.712;2023-05-07T06:39:28;14.70;99.90
18260;DHT22;9256;52.236;5.712;2023-05-07T06:41:55;14.70;99.90
18260;DHT22;9256;52.236;5.712;2023-05-07T06:44:22;14.70;99.90
18260;DHT22;9256;52.236;5.712;2023-05-07T06:46:49;14.60;99.90
18260;DHT22;9256;52.236;5.712;2023-05-07T06:49:18;14.60;99.90
18260;DHT22;9256;52.236;5.712;2023-05-07T06:51:45;14.60;99.90
18260;DHT22;9256;52.236;5.712;2023-05-07T06:54:12;14.70;99.90
18260;DHT22;9256;52.236;5.712;2023-05-07T06:56:39;14.70;99.90
18260;DHT22;9256;52.236;5.712;2023-05-07T06:59:06;14.80;99.90
18260;DHT22;9256;52.236;5.712;2023-05-07T07:01:33;15.00;99.90
18260;DHT22;9256;52.236;5.712;2023-05-07T07:04:00;15.30;99.90
18260;DHT22;9256;52.236;5.712;2023-05-07T07:06:28;15.30;99.90
18260;DHT22;9256;52.236;5.712;2023-05-07T07:08:57;15.40;99.90
18260;DHT22;9256;52.236;5.712;2023-05-07T07:11:24;15.70;99.90
18260;DHT22;9256;52.236;5.712;2023-05-07T07:13:51;15.70;99.90
18260;DHT22;9256;52.236;5.712;2023-05-07T07:16:19;15.80;99.90
18260;DHT22;9256;52.236;5.712;2023-05-07T07:18:46;16.10;99.90
18260;DHT22;9256;52.236;5.712;2023-05-07T07:21:13;16.40;99.90
18260;DHT22;9256;52.236;5.712;2023-05-07T07:23:42;16.50;99.90
18260;DHT22;9256;52.236;5.712;2023-05-07T07:26:08;16.50;99.90
18260;DHT22;9256;52.236;5.712;2023-05-07T07:28:42;16.70;99.90
18260;DHT22;9256;52.236;5.712;2023-05-07T07:31:09;16.70;99.90
18260;DHT22;9256;52.236;5.712;2023-05-07T07:33:36;16.80;99.90
18260;DHT22;9256;52.236;5.712;2023-05-07T07:36:04;16.90;99.90
18260;DHT22;9256;52.236;5.712;2023-05-07T07:38:31;17.00;99.90
18260;DHT22;9256;52.236;5.712;2023-05-07T07:41:00;16.90;99.90
18260;DHT22;9256;52.236;5.712;2023-05-07T07:43:26;16.80;99.90
18260;DHT22;9256;52.236;5.712;2023-05-07T07:45:54;16.60;99.90
18260;DHT22;9256;52.236;5.712;2023-05-07T07:48:21;16.40;99.90
18260;DHT22;9256;52.236;5.712;2023-05-07T07:50:49;16.50;99.90
18260;DHT22;9256;52.236;5.712;2023-05-07T07:53:16;16.50;99.90
18260;DHT22;9256;52.236;5.712;2023-05-07T07:55:43;16.60;99.90
18260;DHT22;9256;52.236;5.712;2023-05-07T07:58:12;16.40;99.90
18260;DHT22;9256;52.236;5.712;2023-05-07T08:00:38;16.40;99.90
18260;DHT22;9256;52.236;5.712;2023-05-07T08:03:05;16.50;99.90
18260;DHT22;9256;52.236;5.712;2023-05-07T08:05:35;16.40;99.90
18260;DHT22;9256;52.236;5.712;2023-05-07T08:08:04;16.50;99.90
18260;DHT22;9256;52.236;5.712;2023-05-07T08:10:31;16.30;99.90
18260;DHT22;9256;52.236;5.712;2023-05-07T08:13:00;16.30;99.90
18260;DHT22;9256;52.236;5.712;2023-05-07T08:15:30;16.40;99.90
18260;DHT22;9256;52.236;5.712;2023-05-07T08:17:57;16.40;99.90
18260;DHT22;9256;52.236;5.712;2023-05-07T08:20:25;16.60;99.90
18260;DHT22;9256;52.236;5.712;2023-05-07T08:22:52;16.80;99.90
18260;DHT22;9256;52.236;5.712;2023-05-07T08:25:19;16.70;99.90
18260;DHT22;9256;52.236;5.712;2023-05-07T08:27:46;16.80;99.90
18260;DHT22;9256;52.236;5.712;2023-05-07T08:30:14;16.80;99.90
18260;DHT22;9256;52.236;5.712;2023-05-07T08:32:42;16.70;99.90
18260;DHT22;9256;52.236;5.712;2023-05-07T08:35:09;16.70;99.90
18260;DHT22;9256;52.236;5.712;2023-05-07T08:37:36;16.50;99.90
18260;DHT22;9256;52.236;5.712;2023-05-07T08:40:04;16.70;99.90
18260;DHT22;9256;52.236;5.712;2023-05-07T08:42:31;16.80;99.90
18260;DHT22;9256;52.236;5.712;2023-05-07T08:45:03;16.90;99.90
18260;DHT22;9256;52.236;5.712;2023-05-07T08:47:35;17.00;99.90
18260;DHT22;9256;52.236;5.712;2023-05-07T08:50:07;17.00;99.90
18260;DHT22;9256;52.236;5.712;2023-05-07T08:52:35;17.10;99.90
18260;DHT22;9256;52.236;5.712;2023-05-07T08:55:03;17.20;99.90
18260;DHT22;9256;52.236;5.712;2023-05-07T08:57:30;17.20;99.90
18260;DHT22;9256;52.236;5.712;2023-05-07T08:59:57;17.10;99.90
18260;DHT22;9256;52.236;5.712;2023-05-07T09:02:24;17.20;99.90
18260;DHT22;9256;52.236;5.712;2023-05-07T09:04:51;16.90;99.90
18260;DHT22;9256;52.236;5.712;2023-05-07T09:07:20;17.00;99.90
18260;DHT22;9256;52.236;5.712;2023-05-07T09:09:47;17.00;99.90
18260;DHT22;9256;52.236;5.712;2023-05-07T09:12:14;16.70;99.90
18260;DHT22;9256;52.236;5.712;2023-05-07T09:14:41;16.70;99.90
18260;DHT22;9256;52.236;5.712;2023-05-07T09:17:08;16.70;99.90
18260;DHT22;9256;52.236;5.712;2023-05-07T09:19:35;16.80;99.90
18260;DHT22;9256;52.236;5.712;2023-05-07T09:22:03;17.10;99.90
18260;DHT22;9256;52.236;5.712;2023-05-07T09:24:32;17.20;99.90
18260;DHT22;9256;52.236;5.712;2023-05-07T09:27:02;17.20;99.90
18260;DHT22;9256;52.236;5.712;2023-05-07T09:29:29;17.50;99.90
18260;DHT22;9256;52.236;5.712;2023-05-07T09:32:01;17.50;99.90
18260;DHT22;9256;52.236;5.712;2023-05-07T09:34:28;17.70;99.90
18260;DHT22;9256;52.236;5.712;2023-05-07T09:36:55;17.70;99.90
18260;DHT22;9256;52.236;5.712;2023-05-07T09:39:23;17.80;99.90
18260;DHT22;9256;52.236;5.712;2023-05-07T09:41:51;18.30;99.90
18260;DHT22;9256;52.236;5.712;2023-05-07T09:44:20;18.60;99.90
18260;DHT22;9256;52.236;5.712;2023-05-07T09:46:53;18.50;99.90
18260;DHT22;9256;52.236;5.712;2023-05-07T09:49:22;19.10;99.90
18260;DHT22;9256;52.236;5.712;2023-05-07T09:51:51;19.30;99.90
18260;DHT22;9256;52.236;5.712;2023-05-07T09:54:18;19.20;99.90
18260;DHT22;9256;52.236;5.712;2023-05-07T09:56:45;19.00;99.90
18260;DHT22;9256;52.236;5.712;2023-05-07T09:59:16;19.10;99.90
18260;DHT22;9256;52.236;5.712;2023-05-07T10:01:44;19.10;99.90
18260;DHT22;9256;52.236;5.712;2023-05-07T10:04:12;18.90;99.90
18260;DHT22;9256;52.236;5.712;2023-05-07T10:06:39;18.40;99.90
18260;DHT22;9256;52.236;5.712;2023-05-07T10:09:07;18.10;99.90
18260;DHT22;9256;52.236;5.712;2023-05-07T10:11:35;18.00;99.90
18260;DHT22;9256;52.236;5.712;2023-05-07T10:14:03;18.00;99.90
18260;DHT22;9256;52.236;5.712;2023-05-07T10:16:34;17.80;99.90
18260;DHT22;9256;52.236;5.712;2023-05-07T10:19:02;18.00;99.90
18260;DHT22;9256;52.236;5.712;2023-05-07T10:21:30;18.00;99.90
18260;DHT22;9256;52.236;5.712;2023-05-07T10:24:03;18.10;99.90
18260;DHT22;9256;52.236;5.712;2023-05-07T10:26:32;17.90;99.90
18260;DHT22;9256;52.236;5.712;2023-05-07T10:29:04;17.70;99.90
18260;DHT22;9256;52.236;5.712;2023-05-07T10:31:50;17.50;99.90
18260;DHT22;9256;52.236;5.712;2023-05-07T10:34:23;17.50;99.90
18260;DHT22;9256;52.236;5.712;2023-05-07T10:36:51;17.40;99.90
18260;DHT22;9256;52.236;5.712;2023-05-07T10:39:19;17.50;99.90
18260;DHT22;9256;52.236;5.712;2023-05-07T10:41:47;17.70;99.90
18260;DHT22;9256;52.236;5.712;2023-05-07T10:44:25;17.90;99.90
18260;DHT22;9256;52.236;5.712;2023-05-07T10:47:08;18.00;99.90
18260;DHT22;9256;52.236;5.712;2023-05-07T10:49:36;18.00;99.90
18260;DHT22;9256;52.236;5.712;2023-05-07T10:52:14;18.20;99.90
18260;DHT22;9256;52.236;5.712;2023-05-07T10:54:42;18.10;99.90
18260;DHT22;9256;52.236;5.712;2023-05-07T10:57:34;18.60;99.90
18260;DHT22;9256;52.236;5.712;2023-05-07T11:00:41;18.50;99.90
18260;DHT22;9256;52.236;5.712;2023-05-07T11:03:09;18.70;99.90
18260;DHT22;9256;52.236;5.712;2023-05-07T11:05:37;18.70;99.90
18260;DHT22;9256;52.236;5.712;2023-05-07T11:08:05;18.80;99.90
18260;DHT22;9256;52.236;5.712;2023-05-07T11:10:49;19.20;99.90
18260;DHT22;9256;52.236;5.712;2023-05-07T11:13:17;20.00;99.90
18260;DHT22;9256;52.236;5.712;2023-05-07T11:15:45;20.00;99.90
18260;DHT22;9256;52.236;5.712;2023-05-07T11:18:15;20.60;99.90
18260;DHT22;9256;52.236;5.712;2023-05-07T11:21:03;20.20;99.90
18260;DHT22;9256;52.236;5.712;2023-05-07T11:23:55;20.20;99.90
18260;DHT22;9256;52.236;5.712;2023-05-07T11:26:27;20.70;99.90
18260;DHT22;9256;52.236;5.712;2023-05-07T11:28:54;21.00;99.90
18260;DHT22;9256;52.236;5.712;2023-05-07T11:31:24;20.90;99.90
18260;DHT22;9256;52.236;5.712;2023-05-07T11:33:54;20.70;99.90
18260;DHT22;9256;52.236;5.712;2023-05-07T11:36:23;20.80;99.90
18260;DHT22;9256;52.236;5.712;2023-05-07T11:38:50;21.00;99.90
18260;DHT22;9256;52.236;5.712;2023-05-07T11:41:17;20.80;99.90
18260;DHT22;9256;52.236;5.712;2023-05-07T11:43:59;20.40;99.90
18260;DHT22;9256;52.236;5.712;2023-05-07T11:46:28;20.30;99.90
18260;DHT22;9256;52.236;5.712;2023-05-07T11:48:56;20.50;99.90
18260;DHT22;9256;52.236;5.712;2023-05-07T11:51:24;20.60;99.90
18260;DHT22;9256;52.236;5.712;2023-05-07T11:53:53;20.40;99.90
18260;DHT22;9256;52.236;5.712;2023-05-07T11:56:20;20.10;99.90
18260;DHT22;9256;52.236;5.712;2023-05-07T11:58:47;20.00;99.90
18260;DHT22;9256;52.236;5.712;2023-05-07T12:01:15;19.90;99.90
18260;DHT22;9256;52.236;5.712;2023-05-07T12:03:45;20.20;99.90
18260;DHT22;9256;52.236;5.712;2023-05-07T12:06:14;20.30;99.90
18260;DHT22;9256;52.236;5.712;2023-05-07T12:08:42;20.70;99.90
18260;DHT22;9256;52.236;5.712;2023-05-07T12:11:13;21.10;99.90
18260;DHT22;9256;52.236;5.712;2023-05-07T12:13:42;21.20;99.90
18260;DHT22;9256;52.236;5.712;2023-05-07T12:16:09;21.20;99.90
18260;DHT22;9256;52.236;5.712;2023-05-07T12:18:36;20.80;99.90
18260;DHT22;9256;52.236;5.712;2023-05-07T12:21:05;20.20;99.90
18260;DHT22;9256;52.236;5.712;2023-05-07T12:23:34;20.60;99.90
18260;DHT22;9256;52.236;5.712;2023-05-07T12:26:02;20.30;99.90
18260;DHT22;9256;52.236;5.712;2023-05-07T12:28:29;20.20;99.90
18260;DHT22;9256;52.236;5.712;2023-05-07T12:30:57;20.10;99.90
18260;DHT22;9256;52.236;5.712;2023-05-07T12:33:25;19.90;99.90
18260;DHT22;9256;52.236;5.712;2023-05-07T12:35:54;20.10;99.90
18260;DHT22;9256;52.236;5.712;2023-05-07T12:38:22;20.20;99.90
18260;DHT22;9256;52.236;5.712;2023-05-07T12:40:53;20.10;99.90
18260;DHT22;9256;52.236;5.712;2023-05-07T12:43:21;20.00;99.90
18260;DHT22;9256;52.236;5.712;2023-05-07T12:45:51;20.20;99.90
18260;DHT22;9256;52.236;5.712;2023-05-07T12:48:21;20.30;99.90
18260;DHT22;9256;52.236;5.712;2023-05-07T12:50:49;19.70;99.90
18260;DHT22;9256;52.236;5.712;2023-05-07T12:53:17;19.90;99.90
18260;DHT22;9256;52.236;5.712;2023-05-07T12:55:47;20.30;99.90
18260;DHT22;9256;52.236;5.712;2023-05-07T12:58:18;20.30;99.90
18260;DHT22;9256;52.236;5.712;2023-05-07T13:00:48;19.90;99.90
18260;DHT22;9256;52.236;5.712;2023-05-07T13:03:21;20.00;99.90
18260;DHT22;9256;52.236;5.712;2023-05-07T13:05:49;19.90;99.90
18260;DHT22;9256;52.236;5.712;2023-05-07T13:08:30;20.20;99.90
18260;DHT22;9256;52.236;5.712;2023-05-07T13:10:59;20.30;99.90
18260;DHT22;9256;52.236;5.712;2023-05-07T13:13:30;21.10;99.90
18260;DHT22;9256;52.236;5.712;2023-05-07T13:15:57;21.90;99.90
18260;DHT22;9256;52.236;5.712;2023-05-07T13:18:24;22.20;99.90
18260;DHT22;9256;52.236;5.712;2023-05-07T13:20:52;22.20;99.90
18260;DHT22;9256;52.236;5.712;2023-05-07T13:23:19;21.90;99.90
18260;DHT22;9256;52.236;5.712;2023-05-07T13:25:46;22.30;99.90
18260;DHT22;9256;52.236;5.712;2023-05-07T13:28:13;22.40;99.90
18260;DHT22;9256;52.236;5.712;2023-05-07T13:30:41;22.50;99.90
18260;DHT22;9256;52.236;5.712;2023-05-07T13:33:08;22.60;99.90
18260;DHT22;9256;52.236;5.712;2023-05-07T13:35:35;22.40;99.90
18260;DHT22;9256;52.236;5.712;2023-05-07T13:38:03;22.10;99.90
18260;DHT22;9256;52.236;5.712;2023-05-07T13:40:29;23.00;99.90
18260;DHT22;9256;52.236;5.712;2023-05-07T13:42:58;23.20;99.90
18260;DHT22;9256;52.236;5.712;2023-05-07T13:45:27;23.20;99.90
18260;DHT22;9256;52.236;5.712;2023-05-07T13:47:56;23.10;99.90
18260;DHT22;9256;52.236;5.712;2023-05-07T13:50:23;22.10;99.90
18260;DHT22;9256;52.236;5.712;2023-05-07T13:52:52;22.20;99.90
18260;DHT22;9256;52.236;5.712;2023-05-07T13:55:20;22.00;99.90
18260;DHT22;9256;52.236;5.712;2023-05-07T13:57:55;22.20;99.90
18260;DHT22;9256;52.236;5.712;2023-05-07T14:00:22;22.40;99.90
18260;DHT22;9256;52.236;5.712;2023-05-07T14:02:49;22.40;99.90
18260;DHT22;9256;52.236;5.712;2023-05-07T14:05:18;22.70;99.90
18260;DHT22;9256;52.236;5.712;2023-05-07T14:07:45;22.70;99.90
18260;DHT22;9256;52.236;5.712;2023-05-07T14:10:12;22.90;99.90
18260;DHT22;9256;52.236;5.712;2023-05-07T14:12:39;23.10;99.90
18260;DHT22;9256;52.236;5.712;2023-05-07T14:15:07;23.30;99.90
18260;DHT22;9256;52.236;5.712;2023-05-07T14:17:34;23.40;99.90
18260;DHT22;9256;52.236;5.712;2023-05-07T14:20:01;23.60;99.90
18260;DHT22;9256;52.236;5.712;2023-05-07T14:22:29;23.60;99.90
18260;DHT22;9256;52.236;5.712;2023-05-07T14:24:56;23.20;99.90
18260;DHT22;9256;52.236;5.712;2023-05-07T14:27:23;22.80;99.90
18260;DHT22;9256;52.236;5.712;2023-05-07T14:29:51;21.90;99.90
18260;DHT22;9256;52.236;5.712;2023-05-07T14:32:18;21.80;99.90
18260;DHT22;9256;52.236;5.712;2023-05-07T14:34:45;21.60;99.90
18260;DHT22;9256;52.236;5.712;2023-05-07T14:37:13;21.20;99.90
18260;DHT22;9256;52.236;5.712;2023-05-07T14:39:41;21.20;99.90
18260;DHT22;9256;52.236;5.712;2023-05-07T14:42:08;21.20;99.90
18260;DHT22;9256;52.236;5.712;2023-05-07T14:44:35;20.90;99.90
18260;DHT22;9256;52.236;5.712;2023-05-07T14:47:02;20.70;99.90
18260;DHT22;9256;52.236;5.712;2023-05-07T14:49:29;20.60;99.90
18260;DHT22;9256;52.236;5.712;2023-05-07T14:51:57;20.50;99.90
18260;DHT22;9256;52.236;5.712;2023-05-07T14:54:25;20.40;99.90
18260;DHT22;9256;52.236;5.712;2023-05-07T14:56:53;20.30;99.90
18260;DHT22;9256;52.236;5.712;2023-05-07T14:59:21;19.90;99.90
18260;DHT22;9256;52.236;5.712;2023-05-07T15:01:50;19.70;99.90
18260;DHT22;9256;52.236;5.712;2023-05-07T15:04:17;19.70;99.90
18260;DHT22;9256;52.236;5.712;2023-05-07T15:06:44;19.70;99.90
18260;DHT22;9256;52.236;5.712;2023-05-07T15:09:11;19.60;99.90
18260;DHT22;9256;52.236;5.712;2023-05-07T15:11:39;19.60;99.90
18260;DHT22;9256;52.236;5.712;2023-05-07T15:14:07;19.50;99.90
18260;DHT22;9256;52.236;5.712;2023-05-07T15:16:34;19.50;99.90
18260;DHT22;9256;52.236;5.712;2023-05-07T15:19:01;19.40;99.90
18260;DHT22;9256;52.236;5.712;2023-05-07T15:21:28;19.40;99.90
18260;DHT22;9256;52.236;5.712;2023-05-07T15:23:56;19.30;99.90
18260;DHT22;9256;52.236;5.712;2023-05-07T15:26:23;19.20;99.90
18260;DHT22;9256;52.236;5.712;2023-05-07T15:28:50;19.20;99.90
18260;DHT22;9256;52.236;5.712;2023-05-07T15:31:19;19.00;99.90
18260;DHT22;9256;52.236;5.712;2023-05-07T15:33:46;19.00;99.90
18260;DHT22;9256;52.236;5.712;2023-05-07T15:36:13;19.10;99.90
18260;DHT22;9256;52.236;5.712;2023-05-07T15:38:40;19.00;99.90
18260;DHT22;9256;52.236;5.712;2023-05-07T15:41:06;18.90;99.90
18260;DHT22;9256;52.236;5.712;2023-05-07T15:43:43;18.90;99.90
18260;DHT22;9256;52.236;5.712;2023-05-07T15:46:11;18.70;99.90
18260;DHT22;9256;52.236;5.712;2023-05-07T15:48:39;18.60;99.90
18260;DHT22;9256;52.236;5.712;2023-05-07T15:51:06;18.70;99.90